Time;durP1;ratioP1;P1;durP2;ratioP2;P2;SDS_P1;SDS_P2;PMS_P1;PMS_P2;Temp;Humidity;BMP_temperature;BMP_pressure;BME280_temperature;BME280_humidity;BME280_pressure;Samples;Min_cycle;Max_cycle;Signal;HPM_P1;HPM_P2
2022/09/10 00:00:46;;;;;;;17.05;9.50;;;;;;;;;;5097442;28;20044;-88
2022/09/10 00:03:12;;;;;;;12.27;8.98;;;;;;;;;;5097540;28;20048;-84
2022/09/10 00:05:42;;;;;;;14.93;10.68;;;;;;;;;;5097526;28;20048;-81
2022/09/10 00:08:09;;;;;;;15.05;11.48;;;15.40;99.90;;;;;;5097295;28;20055;-80
2022/09/10 00:10:44;;;;;;;14.55;11.65;;;15.50;99.90;;;;;;5081202;28;20044;-82
2022/09/10 00:13:10;;;;;;;20.58;11.55;;;15.40;99.90;;;;;;5080480;28;20055;-88
2022/09/10 00:15:44;;;;;;;16.50;13.20;;;15.40;99.90;;;;;;5097621;28;20036;-89
2022/09/10 00:18:11;;;;;;;16.50;12.23;;;;;;;;;;5077150;28;20435;-85
2022/09/10 00:20:49;;;;;;;14.95;12.13;;;15.50;99.90;;;;;;5060923;28;20046;-82
2022/09/10 00:23:20;;;;;;;21.88;13.30;;;15.30;99.90;;;;;;5094611;28;20514;-89
2022/09/10 00:25:48;;;;;;;21.63;12.55;;;;;;;;;;5096722;28;20080;-87
2022/09/10 00:28:15;;;;;;;23.38;14.95;;;;;;;;;;5096968;28;20055;-89
2022/09/10 00:30:45;;;;;;;20.58;13.63;;;15.40;99.90;;;;;;5108322;28;20051;-89
2022/09/10 00:33:12;;;;;;;16.48;12.07;;;15.50;99.90;;;;;;5094904;28;20083;-90
2022/09/10 00:35:39;;;;;;;21.25;14.27;;;;;;;;;;5076969;28;20036;-88
2022/09/10 00:38:05;;;;;;;20.10;15.23;;;15.60;99.90;;;;;;5060286;28;20101;-89
2022/09/10 00:40:32;;;;;;;25.40;13.40;;;;;;;;;;5059716;28;20378;-89
2022/09/10 00:42:58;;;;;;;20.17;14.27;;;;;;;;;;5077675;28;20055;-89
2022/09/10 00:45:26;;;;;;;20.08;13.35;;;15.70;99.90;;;;;;5059736;28;20048;-84
2022/09/10 00:47:55;;;;;;;20.27;14.45;;;15.70;99.90;;;;;;5075193;28;20376;-83
2022/09/10 00:50:33;;;;;;;16.63;13.05;;;15.60;99.90;;;;;;5065388;28;20096;-80
2022/09/10 00:53:04;;;;;;;23.00;14.10;;;15.80;99.90;;;;;;5093422;27;20047;-81
2022/09/10 00:55:30;;;;;;;26.98;15.00;;;;;;;;;;5116874;27;20121;-86
2022/09/10 00:57:59;;;;;;;17.02;13.73;;;;;;;;;;5116876;27;20487;-82
2022/09/10 01:00:25;;;;;;;19.40;13.35;;;15.70;99.90;;;;;;5099911;27;20053;-78
2022/09/10 01:02:54;;;;;;;24.88;14.93;;;;;;;;;;5097181;27;20043;-88
2022/09/10 01:05:20;;;;;;;23.23;13.60;;;15.30;99.90;;;;;;5099855;27;20495;-89
2022/09/10 01:07:47;;;;;;;17.65;13.57;;;15.60;99.90;;;;;;5116607;27;20035;-89
2022/09/10 01:10:17;;;;;;;23.20;14.88;;;15.70;99.90;;;;;;5099307;27;20097;-89
2022/09/10 01:12:43;;;;;;;21.52;14.75;;;;;;;;;;5112563;27;20160;-89
2022/09/10 01:15:30;;;;;;;20.15;15.55;;;15.70;99.90;;;;;;5116614;27;20126;-88
2022/09/10 01:18:17;;;;;;;26.50;14.10;;;15.80;99.90;;;;;;5097747;27;20047;-89
2022/09/10 01:21:01;;;;;;;28.75;18.05;;;14.90;99.90;;;;;;5096088;28;20056;-88
2022/09/10 01:23:49;;;;;;;27.13;14.93;;;15.80;99.90;;;;;;5075854;28;20659;-87
2022/09/10 01:26:44;;;;;;;20.70;16.20;;;15.50;99.90;;;;;;5059207;28;20040;-89
2022/09/10 01:29:19;;;;;;;22.83;16.50;;;16.00;99.90;;;;;;4975752;28;20054;-89
2022/09/10 01:31:45;;;;;;;25.85;16.67;;;;;;;;;;4975862;28;20161;-90
2022/09/10 01:34:19;;;;;;;21.35;16.05;;;15.80;99.90;;;;;;4978532;28;20125;-90
2022/09/10 01:36:47;;;;;;;;;;;15.50;99.90;;;;;;4995994;28;20473;-90
2022/09/10 01:39:17;;;;;;;27.98;17.25;;;15.70;99.90;;;;;;4994997;28;19945;-90
2022/09/10 01:41:43;;;;;;;25.42;16.55;;;;;;;;;;4979177;28;20514;-90
2022/09/10 01:44:30;;;;;;;20.73;16.50;;;15.70;99.90;;;;;;4994876;28;20046;-88
2022/09/10 01:47:11;;;;;;;27.38;18.65;;;15.90;99.90;;;;;;4990609;28;20065;-86
2022/09/10 01:50:02;;;;;;;24.75;16.63;;;15.60;99.90;;;;;;4990368;28;20092;-86
2022/09/10 01:53:05;;;;;;;29.50;18.45;;;15.70;99.90;;;;;;5028263;28;20100;-91
2022/09/10 01:56:03;;;;;;;26.63;18.67;;;15.80;99.90;;;;;;4996632;28;20052;-81
2022/09/10 01:58:34;;;;;;;27.17;18.35;;;15.70;99.90;;;;;;4993838;28;20120;-89
2022/09/10 02:01:25;;;;;;;25.95;18.65;;;15.80;99.90;;;;;;4978458;28;20049;-88
2022/09/10 02:03:58;;;;;;;33.35;19.30;;;15.70;99.90;;;;;;4978640;28;20049;-88
2022/09/10 02:06:27;;;;;;;26.13;19.42;;;;;;;;;;5074577;28;20043;-89
2022/09/10 02:08:55;;;;;;;32.95;19.20;;;15.60;99.90;;;;;;5078179;28;20087;-90
2022/09/10 02:11:21;;;;;;;27.75;18.85;;;15.50;99.90;;;;;;5078458;28;20453;-89
2022/09/10 02:13:47;;;;;;;27.58;20.08;;;;;;;;;;5077993;28;20107;-91
2022/09/10 02:16:30;;;;;;;35.83;20.52;;;;;;;;;;5077505;28;20089;-90
2022/09/10 02:18:57;;;;;;;31.85;21.25;;;15.50;99.90;;;;;;5094091;28;20059;-89
2022/09/10 02:21:23;;;;;;;29.20;20.33;;;;;;;;;;5094833;28;20044;-87
2022/09/10 02:23:55;;;;;;;28.58;19.73;;;15.60;99.90;;;;;;5094678;28;20044;-90
2022/09/10 02:26:21;;;;;;;32.15;22.00;;;;;;;;;;5077912;28;20088;-88
2022/09/10 02:28:48;;;;;;;27.80;20.67;;;;;;;;;;5082301;28;20104;-87
2022/09/10 02:31:14;;;;;;;28.33;19.92;;;;;;;;;;5077628;28;20079;-89
2022/09/10 02:33:40;;;;;;;32.63;19.67;;;;;;;;;;5094377;28;20044;-89
2022/09/10 02:36:07;;;;;;;29.33;20.17;;;;;;;;;;5094450;28;20508;-87
2022/09/10 02:38:33;;;;;;;28.00;20.75;;;;;;;;;;5078840;28;20047;-87
2022/09/10 02:40:59;;;;;;;27.98;19.75;;;;;;;;;;5077519;28;20046;-89
2022/09/10 02:43:26;;;;;;;27.48;21.33;;;15.70;99.90;;;;;;5077491;28;20039;-90
2022/09/10 02:45:58;;;;;;;28.48;20.00;;;15.60;99.90;;;;;;5094262;28;20072;-89
2022/09/10 02:48:25;;;;;;;30.92;19.92;;;15.60;99.90;;;;;;5094323;28;20155;-87
2022/09/10 02:50:51;;;;;;;34.47;22.55;;;15.50;99.90;;;;;;5095205;28;20066;-90
2022/09/10 02:53:18;;;;;;;30.42;21.52;;;;;;;;;;5112595;28;20050;-87
2022/09/10 02:55:45;;;;;;;30.08;22.33;;;15.60;99.90;;;;;;5094191;28;20047;-86
2022/09/10 02:58:12;;;;;;;26.70;20.63;;;15.60;99.90;;;;;;5099871;28;20131;-89
2022/09/10 03:00:38;;;;;;;31.02;20.83;;;;;;;;;;5114718;27;20092;-87
2022/09/10 03:03:04;;;;;;;34.28;22.05;;;;;;;;;;5097981;28;20054;-87
2022/09/10 03:05:30;;;;;;;33.40;22.08;;;15.60;99.90;;;;;;5097482;28;20129;-87
2022/09/10 03:07:56;;;;;;;30.13;21.52;;;15.40;99.90;;;;;;5096466;28;20085;-88
2022/09/10 03:10:23;;;;;;;26.75;19.75;;;;;;;;;;5110346;28;20048;-88
2022/09/10 03:12:49;;;;;;;29.25;22.83;;;15.40;99.90;;;;;;5096603;28;20130;-89
2022/09/10 03:15:16;;;;;;;34.42;22.95;;;;;;;;;;5080644;28;20126;-89
2022/09/10 03:17:42;;;;;;;34.95;22.80;;;;;;;;;;5094234;28;20043;-87
2022/09/10 03:20:08;;;;;;;35.35;22.67;;;15.60;99.90;;;;;;5094870;28;20040;-87
2022/09/10 03:22:34;;;;;;;31.65;23.05;;;;;;;;;;5077245;28;20035;-81
2022/09/10 03:25:00;;;;;;;36.47;24.63;;;15.60;99.90;;;;;;5093952;28;20059;-83
2022/09/10 03:27:26;;;;;;;34.97;22.48;;;;;;;;;;5077411;28;20044;-87
2022/09/10 03:29:52;;;;;;;32.65;22.27;;;;;;;;;;5097088;28;20569;-83
2022/09/10 03:32:18;;;;;;;31.88;22.08;;;;;;;;;;5114337;28;20039;-83
2022/09/10 03:34:44;;;;;;;34.45;23.95;;;;;;;;;;5114171;28;20051;-85
2022/09/10 03:37:10;;;;;;;33.05;23.35;;;;;;;;;;5114189;28;20046;-86
2022/09/10 03:39:36;;;;;;;34.72;23.17;;;;;;;;;;5114421;28;20051;-83
2022/09/10 03:42:04;;;;;;;37.22;22.58;;;;;;;;;;5095927;28;20412;-88
2022/09/10 03:44:32;;;;;;;31.75;22.70;;;;;;;;;;5093774;28;20055;-81
2022/09/10 03:46:59;;;;;;;33.03;23.67;;;;;;;;;;5094085;28;20043;-88
2022/09/10 03:49:25;;;;;;;31.33;22.15;;;15.90;99.90;;;;;;5077313;28;20411;-82
2022/09/10 03:51:51;;;;;;;30.92;22.40;;;;;;;;;;5096073;28;20036;-80
2022/09/10 03:54:17;;;;;;;31.80;22.85;;;;;;;;;;5093803;28;20043;-79
2022/09/10 03:56:43;;;;;;;34.28;22.42;;;;;;;;;;5077229;28;20035;-82
2022/09/10 03:59:09;;;;;;;33.90;23.33;;;;;;;;;;5077013;28;20040;-81
2022/09/10 04:01:35;;;;;;;29.23;21.73;;;;;;;;;;5077565;28;20044;-85
2022/09/10 04:04:02;;;;;;;33.97;22.63;;;;;;;;;;5093364;28;20071;-79
2022/09/10 04:06:31;;;;;;;36.15;24.05;;;;;;;;;;5093503;28;20044;-84
2022/09/10 04:08:59;;;;;;;28.35;21.38;;;;;;;;;;5076624;28;20043;-87
2022/09/10 04:11:26;;;;;;;34.97;23.45;;;15.80;99.90;;;;;;5095842;28;20175;-84
2022/09/10 04:13:52;;;;;;;35.97;22.35;;;;;;;;;;5093658;28;20105;-87
2022/09/10 04:16:18;;;;;;;32.00;22.27;;;;;;;;;;5089135;28;20050;-86
2022/09/10 04:18:45;;;;;;;29.27;21.45;;;;;;;;;;5113772;28;20039;-84
2022/09/10 04:21:11;;;;;;;31.55;20.80;;;;;;;;;;5113845;27;20043;-85
2022/09/10 04:23:40;;;;;;;34.83;21.95;;;;;;;;;;5116581;27;20043;-89
2022/09/10 04:26:13;;;;;;;36.17;21.23;;;15.70;99.90;;;;;;5093169;28;20072;-85
2022/09/10 04:28:39;;;;;;;31.60;22.20;;;;;;;;;;5113114;27;20039;-90
2022/09/10 04:31:05;;;;;;;33.60;22.60;;;;;;;;;;5117617;27;20062;-88
2022/09/10 04:33:32;;;;;;;31.90;21.50;;;;;;;;;;5117714;27;20043;-85
2022/09/10 04:36:01;;;;;;;30.70;22.58;;;;;;;;;;5100801;27;20144;-90
2022/09/10 04:38:30;;;;;;;33.38;22.38;;;15.50;99.90;;;;;;5115640;27;20039;-88
2022/09/10 04:40:57;;;;;;;32.83;22.67;;;15.30;99.90;;;;;;5081725;28;20047;-84
2022/09/10 04:43:27;;;;;;;32.17;21.63;;;;;;;;;;5080304;28;20043;-87
2022/09/10 04:45:54;;;;;;;36.40;23.95;;;15.50;99.90;;;;;;5096888;28;20051;-82
2022/09/10 04:48:21;;;;;;;38.08;23.73;;;15.50;99.90;;;;;;5096544;28;20046;-79
2022/09/10 04:50:47;;;;;;;38.10;23.73;;;;;;;;;;5097914;28;20403;-78
2022/09/10 04:53:14;;;;;;;32.05;23.05;;;;;;;;;;5096758;28;20043;-88
2022/09/10 04:55:42;;;;;;;31.48;22.33;;;15.40;99.90;;;;;;5096598;28;20135;-79
2022/09/10 04:58:08;;;;;;;27.85;20.85;;;;;;;;;;5096976;28;20492;-79
2022/09/10 05:00:34;;;;;;;37.50;23.77;;;;;;;;;;5097738;28;20484;-82
2022/09/10 05:03:00;;;;;;;36.72;23.52;;;;;;;;;;5082478;27;20135;-81
2022/09/10 05:05:27;;;;;;;30.60;21.92;;;;;;;;;;5117878;27;20089;-78
2022/09/10 05:07:53;;;;;;;39.25;23.30;;;;;;;;;;5089684;28;20104;-89
2022/09/10 05:10:20;;;;;;;32.40;22.13;;;;;;;;;;5082651;28;20048;-90
2022/09/10 05:12:47;;;;;;;34.05;22.42;;;;;;;;;;5103948;28;20126;-90
2022/09/10 05:15:12;;;;;;;33.33;22.77;;;15.40;99.90;;;;;;5098830;28;20118;-90
2022/09/10 05:17:38;;;;;;;32.80;22.98;;;15.50;99.90;;;;;;5099161;28;20512;-88
2022/09/10 05:20:06;;;;;;;33.75;21.23;;;15.60;99.90;;;;;;5081894;28;20407;-90
2022/09/10 05:22:33;;;;;;;29.48;21.77;;;;;;;;;;5083925;28;20043;-90
2022/09/10 05:24:59;;;;;;;35.30;22.63;;;;;;;;;;5106466;27;20113;-89
2022/09/10 05:27:25;;;;;;;33.50;22.08;;;15.20;99.90;;;;;;5103890;27;20134;-90
2022/09/10 05:29:51;;;;;;;29.02;21.15;;;;;;;;;;5118554;27;20059;-88
2022/09/10 05:32:17;;;;;;;37.47;22.85;;;;;;;;;;5116535;27;20391;-89
2022/09/10 05:34:47;;;;;;;34.55;21.98;;;;;;;;;;5099170;27;20054;-88
2022/09/10 05:37:13;;;;;;;35.83;21.73;;;15.40;99.90;;;;;;5099137;27;20038;-88
2022/09/10 05:39:40;;;;;;;37.17;22.40;;;;;;;;;;5089838;27;20042;-87
2022/09/10 05:42:06;;;;;;;33.10;22.90;;;15.70;99.90;;;;;;5116312;27;20051;-88
2022/09/10 05:44:32;;;;;;;34.03;23.80;;;15.80;99.90;;;;;;5116256;27;20051;-84
2022/09/10 05:46:58;;;;;;;32.42;21.92;;;;;;;;;;5098859;27;20050;-83
2022/09/10 05:49:24;;;;;;;33.83;23.65;;;;;;;;;;5112913;27;20425;-89
2022/09/10 05:51:51;;;;;;;33.25;23.17;;;;;;;;;;5095767;28;20039;-83
2022/09/10 05:54:17;;;;;;;34.10;22.00;;;;;;;;;;5102511;27;20035;-84
2022/09/10 05:56:43;;;;;;;29.17;22.10;;;;;;;;;;5115787;27;20046;-85
2022/09/10 05:59:09;;;;;;;30.25;22.08;;;15.70;99.90;;;;;;5098448;27;20043;-84
2022/09/10 06:01:36;;;;;;;32.38;22.52;;;15.60;99.90;;;;;;5099380;28;20054;-83
2022/09/10 06:04:02;;;;;;;30.65;22.27;;;15.60;99.90;;;;;;5094990;28;20522;-85
2022/09/10 06:06:28;;;;;;;39.95;22.17;;;15.60;99.90;;;;;;5078215;28;20043;-87
2022/09/10 06:08:55;;;;;;;33.63;22.00;;;;;;;;;;5094824;28;20062;-90
2022/09/10 06:11:21;;;;;;;28.70;21.35;;;15.70;99.90;;;;;;5096130;28;20407;-89
2022/09/10 06:13:47;;;;;;;36.08;21.70;;;;;;;;;;5094869;28;20040;-86
2022/09/10 06:16:14;;;;;;;31.55;22.08;;;15.80;99.90;;;;;;5094764;28;20090;-88
2022/09/10 06:18:41;;;;;;;29.67;22.23;;;;;;;;;;5094682;28;20128;-80
2022/09/10 06:21:09;;;;;;;36.50;22.27;;;;;;;;;;5094559;27;20059;-87
2022/09/10 06:23:35;;;;;;;30.23;20.60;;;;;;;;;;5114019;27;20043;-88
2022/09/10 06:26:07;;;;;;;31.05;20.67;;;15.90;99.90;;;;;;5077387;28;20081;-86
2022/09/10 06:28:34;;;;;;;31.85;21.23;;;15.90;99.90;;;;;;5078493;28;20071;-86
2022/09/10 06:31:03;;;;;;;31.63;19.38;;;;;;;;;;5095377;28;20072;-88
2022/09/10 06:33:30;;;;;;;26.35;20.20;;;;;;;;;;5092821;27;20043;-88
2022/09/10 06:35:57;;;;;;;31.23;20.25;;;15.90;99.90;;;;;;5114547;27;20046;-88
2022/09/10 06:38:24;;;;;;;26.27;19.85;;;;;;;;;;5094967;28;20092;-89
2022/09/10 06:40:54;;;;;;;26.73;19.45;;;16.10;99.90;;;;;;5095564;28;20054;-88
2022/09/10 06:43:24;;;;;;;27.05;18.38;;;;;;;;;;5079094;28;20048;-91
2022/09/10 06:45:54;;;;;;;29.90;18.77;;;16.00;99.90;;;;;;5094990;28;20093;-89
2022/09/10 06:48:26;;;;;;;31.45;20.55;;;15.90;99.90;;;;;;5096272;28;20082;-83
2022/09/10 06:50:58;;;;;;;27.55;18.40;;;;;;;;;;5094861;28;20492;-89
2022/09/10 06:53:31;;;;;;;26.60;19.20;;;16.00;99.90;;;;;;5103195;28;20044;-87
2022/09/10 06:55:59;;;;;;;33.00;18.80;;;15.80;99.90;;;;;;5098257;27;20118;-83
2022/09/10 06:58:27;;;;;;;27.52;18.20;;;;;;;;;;5144500;27;20451;-86
2022/09/10 07:00:53;;;;;;;25.90;17.83;;;;;;;;;;5103979;28;20047;-86
2022/09/10 07:03:20;;;;;;;24.83;18.55;;;16.00;99.90;;;;;;5100313;27;20047;-86
2022/09/10 07:05:46;;;;;;;26.17;18.23;;;;;;;;;;5106136;28;20231;-92
2022/09/10 07:08:14;;;;;;;26.42;17.70;;;16.00;99.90;;;;;;5077636;28;20048;-92
2022/09/10 07:10:41;;;;;;;28.92;18.80;;;;;;;;;;5097507;28;20044;-88
2022/09/10 07:13:07;;;;;;;28.67;18.95;;;15.70;99.90;;;;;;5080961;28;20073;-91
2022/09/10 07:15:33;;;;;;;28.27;17.50;;;;;;;;;;5097779;28;20048;-87
2022/09/10 07:17:59;;;;;;;24.85;18.17;;;16.10;99.90;;;;;;5121146;28;20124;-87
2022/09/10 07:20:28;;;;;;;29.27;18.50;;;;;;;;;;5115123;28;20149;-88
2022/09/10 07:22:58;;;;;;;27.65;18.40;;;;;;;;;;5117526;28;20074;-90
2022/09/10 07:25:25;;;;;;;25.75;18.95;;;15.90;99.90;;;;;;5097775;28;20447;-92
2022/09/10 07:27:52;;;;;;;29.98;18.10;;;16.20;99.90;;;;;;5099052;28;20462;-91
2022/09/10 07:30:21;;;;;;;22.35;17.48;;;;;;;;;;5077712;28;20038;-92
2022/09/10 07:32:48;;;;;;;29.90;18.08;;;;;;;;;;5094108;28;20048;-92
2022/09/10 07:35:15;;;;;;;23.58;16.13;;;16.30;99.90;;;;;;5094468;28;20127;-91
2022/09/10 07:37:40;;;;;;;29.38;18.58;;;16.60;99.90;;;;;;5078391;28;20100;-92
2022/09/10 07:40:07;;;;;;;31.83;18.95;;;16.30;99.90;;;;;;5102523;28;20047;-92
2022/09/10 07:42:34;;;;;;;29.50;18.23;;;;;;;;;;5085160;28;20075;-87
2022/09/10 07:45:00;;;;;;;25.63;17.35;;;;;;;;;;5094310;28;20123;-88
2022/09/10 07:47:26;;;;;;;28.83;18.15;;;;;;;;;;5093660;28;20164;-87
2022/09/10 07:49:53;;;;;;;26.77;18.73;;;;;;;;;;5114335;28;20484;-88
2022/09/10 07:52:19;;;;;;;28.02;17.27;;;;;;;;;;5113855;28;20504;-87
2022/09/10 07:54:44;;;;;;;28.38;17.95;;;16.50;99.90;;;;;;5096646;28;20058;-88
2022/09/10 07:57:10;;;;;;;26.75;18.33;;;;;;;;;;5097751;27;20484;-87
2022/09/10 07:59:36;;;;;;;27.13;18.25;;;;;;;;;;5100893;27;20043;-88
2022/09/10 08:02:03;;;;;;;24.48;17.73;;;;;;;;;;5113552;28;20088;-87
2022/09/10 08:04:30;;;;;;;29.67;18.23;;;16.40;99.90;;;;;;5080676;28;20043;-88
2022/09/10 08:06:57;;;;;;;27.58;17.65;;;;;;;;;;5097612;28;20040;-87
2022/09/10 08:09:24;;;;;;;24.85;17.08;;;;;;;;;;5080638;28;20082;-87
2022/09/10 08:11:50;;;;;;;25.23;16.67;;;;;;;;;;5081399;28;20055;-87
2022/09/10 08:14:16;;;;;;;27.67;17.40;;;;;;;;;;5116315;27;20043;-88
2022/09/10 08:16:42;;;;;;;25.95;17.27;;;;;;;;;;5094982;28;20557;-84
2022/09/10 08:19:09;;;;;;;26.35;18.73;;;;;;;;;;5085488;27;20406;-85
2022/09/10 08:21:35;;;;;;;25.75;18.77;;;;;;;;;;5104823;28;20488;-87
2022/09/10 08:24:02;;;;;;;23.70;16.88;;;17.00;99.90;;;;;;5097651;28;20056;-87
2022/09/10 08:26:28;;;;;;;22.98;17.08;;;;;;;;;;5097521;28;20044;-86
2022/09/10 08:28:56;;;;;;;20.13;14.98;;;17.00;99.90;;;;;;5098670;28;20040;-90
2022/09/10 08:31:26;;;;;;;28.08;16.25;;;16.90;99.90;;;;;;5081951;28;20176;-92
2022/09/10 08:33:53;;;;;;;22.35;15.88;;;17.00;99.90;;;;;;5112076;27;20050;-92
2022/09/10 08:36:23;;;;;;;21.25;14.63;;;17.20;99.90;;;;;;5094963;28;20036;-88
2022/09/10 08:38:52;;;;;;;23.23;16.20;;;17.00;99.90;;;;;;5081219;28;20040;-92
2022/09/10 08:41:24;;;;;;;20.05;14.10;;;17.10;99.90;;;;;;5081206;28;20051;-92
2022/09/10 08:43:53;;;;;;;27.10;15.65;;;17.00;99.90;;;;;;5081343;28;20078;-91
2022/09/10 08:46:24;;;;;;;19.45;15.10;;;17.10;99.90;;;;;;5080978;28;20079;-91
2022/09/10 08:49:14;;;;;;;21.35;14.73;;;17.20;99.90;;;;;;5080924;28;20116;-89
2022/09/10 08:51:55;;;;;;;22.13;15.68;;;17.00;99.90;;;;;;5083658;28;20048;-92
2022/09/10 08:54:25;;;;;;;22.58;16.55;;;17.20;99.90;;;;;;5098194;28;20399;-91
2022/09/10 08:56:54;;;;;;;25.48;14.63;;;17.10;99.90;;;;;;5097930;28;20555;-92
2022/09/10 08:59:32;;;;;;;21.55;14.90;;;17.30;99.90;;;;;;5080602;28;20093;-93
2022/09/10 09:02:21;;;;;;;22.98;15.07;;;17.40;99.90;;;;;;5080678;28;20090;-92
2022/09/10 09:04:57;;;;;;;22.85;13.95;;;17.30;99.90;;;;;;5096931;28;20527;-90
2022/09/10 09:07:24;;;;;;;19.40;14.20;;;17.30;99.90;;;;;;5081096;28;20044;-92
2022/09/10 09:09:50;;;;;;;19.38;13.23;;;17.30;99.90;;;;;;5070752;27;20055;-88
2022/09/10 09:12:28;;;;;;;21.30;12.18;;;17.40;99.90;;;;;;5117041;27;20047;-86
2022/09/10 09:15:17;;;;;;;19.50;12.43;;;17.40;99.90;;;;;;5101759;28;20174;-87
2022/09/10 09:18:09;;;;;;;14.77;11.85;;;17.60;99.90;;;;;;5079641;28;20040;-88
2022/09/10 09:20:56;;;;;;;19.60;11.98;;;17.50;99.90;;;;;;5095522;28;20073;-87
2022/09/10 09:23:42;;;;;;;14.82;10.90;;;17.30;99.90;;;;;;5116497;27;20117;-86
2022/09/10 09:26:12;;;;;;;17.75;13.10;;;17.30;99.90;;;;;;5101056;27;20118;-86
2022/09/10 09:28:47;;;;;;;19.13;11.03;;;17.40;99.90;;;;;;5098417;28;20407;-87
2022/09/10 09:31:26;;;;;;;19.02;11.18;;;17.50;99.90;;;;;;5096287;28;20353;-86
2022/09/10 09:33:59;;;;;;;17.63;10.55;;;17.50;99.90;;;;;;5097614;27;20107;-86
2022/09/10 09:36:47;;;;;;;16.75;9.90;;;17.60;99.90;;;;;;5095611;28;20046;-86
2022/09/10 09:39:35;;;;;;;18.75;10.48;;;17.60;99.90;;;;;;5096016;28;20040;-87
2022/09/10 09:42:13;;;;;;;12.93;10.65;;;17.70;99.90;;;;;;5078932;28;20051;-87
2022/09/10 09:44:50;;;;;;;14.63;11.60;;;17.70;99.90;;;;;;5097386;27;20035;-85
2022/09/10 09:47:17;;;;;;;15.05;10.68;;;;;;;;;;5099482;27;20043;-85
2022/09/10 09:49:44;;;;;;;18.65;10.98;;;;;;;;;;5079305;28;20044;-88
2022/09/10 09:52:22;;;;;;;13.85;11.02;;;17.50;99.90;;;;;;5113825;28;20491;-87
2022/09/10 09:54:55;;;;;;;16.90;10.55;;;17.70;99.90;;;;;;5095832;28;20125;-86
2022/09/10 09:57:22;;;;;;;15.95;11.07;;;17.80;99.90;;;;;;5122238;27;20100;-85
2022/09/10 09:59:49;;;;;;;19.65;11.18;;;17.80;99.90;;;;;;5128082;27;20102;-85
2022/09/10 10:02:23;;;;;;;16.42;11.00;;;18.10;99.90;;;;;;5127997;27;20075;-86
2022/09/10 10:04:54;;;;;;;13.02;10.50;;;17.80;99.90;;;;;;5128524;27;20082;-86
2022/09/10 10:07:31;;;;;;;12.75;9.82;;;18.10;99.90;;;;;;5133096;27;20036;-88
2022/09/10 10:09:59;;;;;;;14.40;11.00;;;18.10;99.90;;;;;;5091028;28;20060;-85
2022/09/10 10:12:30;;;;;;;18.30;11.57;;;18.10;99.90;;;;;;5109429;28;20500;-90
2022/09/10 10:14:58;;;;;;;16.63;11.50;;;18.40;99.90;;;;;;5096759;28;20055;-89
2022/09/10 10:17:37;;;;;;;18.17;11.77;;;18.20;99.90;;;;;;5097759;28;20504;-89
2022/09/10 10:20:07;;;;;;;13.52;10.63;;;18.40;99.90;;;;;;5078318;28;20131;-91
2022/09/10 10:22:35;;;;;;;13.65;10.80;;;18.30;99.90;;;;;;5096392;28;20043;-90
2022/09/10 10:25:05;;;;;;;14.75;10.93;;;18.40;99.90;;;;;;5096380;28;20039;-88
2022/09/10 10:27:44;;;;;;;15.90;11.20;;;18.30;99.90;;;;;;5096552;27;20039;-92
2022/09/10 10:30:36;;;;;;;15.20;10.82;;;18.60;99.90;;;;;;5096146;28;20116;-91
2022/09/10 10:33:13;;;;;;;16.70;10.80;;;18.50;99.90;;;;;;5031840;28;20605;-93
2022/09/10 10:35:43;;;;;;;15.05;11.32;;;18.70;99.90;;;;;;5014573;28;20064;-89
2022/09/10 10:38:39;;;;;;;15.93;11.23;;;18.80;99.90;;;;;;5016525;28;20121;-90
2022/09/10 10:41:44;;;;;;;15.13;10.23;;;18.80;99.90;;;;;;4998539;28;20046;-90
2022/09/10 10:44:38;;;;;;;17.23;9.75;;;19.00;99.90;;;;;;5014700;28;20402;-88
2022/09/10 10:47:04;;;;;;;16.90;12.32;;;;;;;;;;4998489;28;20045;-90
2022/09/10 10:49:47;;;;;;;15.25;11.25;;;19.00;99.90;;;;;;5001161;28;20095;-92
2022/09/10 10:52:19;;;;;;;17.77;11.52;;;19.20;99.90;;;;;;5001346;28;20048;-89
2022/09/10 10:54:49;;;;;;;14.35;11.07;;;19.10;99.90;;;;;;5039555;28;20060;-92
2022/09/10 10:57:45;;;;;;;11.68;9.93;;;18.90;99.90;;;;;;5032149;28;20088;-90
2022/09/10 11:00:16;;;;;;;14.32;11.10;;;19.00;99.90;;;;;;5035343;28;20199;-86
2022/09/10 11:03:30;;;;;;;18.63;11.60;;;19.00;99.90;;;;;;5034600;28;20041;-82
2022/09/10 11:06:13;;;;;;;16.90;11.65;;;18.90;99.90;;;;;;4939845;28;20050;-90
2022/09/10 11:08:49;;;;;;;16.90;12.02;;;19.00;99.90;;;;;;4940156;28;20054;-84
2022/09/10 11:11:37;;;;;;;13.95;10.13;;;19.00;99.90;;;;;;4977657;28;20053;-92
2022/09/10 11:14:22;;;;;;;19.52;11.90;;;18.50;99.90;;;;;;4982365;28;20068;-88
2022/09/10 11:16:57;;;;;;;14.35;11.40;;;19.00;99.90;;;;;;4992955;28;20789;-83
2022/09/10 11:19:35;;;;;;;17.38;11.20;;;19.00;99.90;;;;;;5007185;28;20045;-88
2022/09/10 11:22:33;;;;;;;14.75;10.93;;;19.00;99.90;;;;;;4994548;28;20519;-85
2022/09/10 11:25:04;;;;;;;17.65;10.80;;;18.90;99.90;;;;;;5013199;28;20091;-87
2022/09/10 11:27:45;;;;;;;20.63;11.85;;;18.90;99.90;;;;;;5015538;28;20063;-92
2022/09/10 11:30:15;;;;;;;16.58;11.25;;;19.20;99.90;;;;;;4999766;28;20129;-89
2022/09/10 11:33:08;;;;;;;18.35;10.93;;;19.20;99.90;;;;;;4997546;28;20621;-90
2022/09/10 11:35:40;;;;;;;14.15;10.02;;;19.20;99.90;;;;;;5007999;28;20100;-92
2022/09/10 11:38:42;;;;;;;16.87;10.00;;;19.30;99.90;;;;;;5002635;28;20076;-92
2022/09/10 11:41:48;;;;;;;15.93;9.73;;;19.60;99.90;;;;;;5096880;28;20075;-80
2022/09/10 11:44:15;;;;;;;13.27;9.32;;;;;;;;;;5048530;28;20053;-88
2022/09/10 11:46:41;;;;;;;10.95;9.02;;;;;;;;;;5036997;28;20049;-89
2022/09/10 11:49:25;;;;;;;14.38;9.70;;;19.60;99.90;;;;;;5021178;28;20049;-84
2022/09/10 11:51:51;;;;;;;;;;;19.60;99.90;;;;;;5038073;28;20087;-91
2022/09/10 11:54:27;;;;;;;12.45;9.90;;;19.60;99.90;;;;;;5036886;28;19929;-88
2022/09/10 11:57:11;;;;;;;14.35;9.32;;;19.60;99.90;;;;;;5037031;28;20060;-86
2022/09/10 11:59:36;;;;;;;14.50;11.10;;;19.60;99.90;;;;;;5036787;28;20064;-86
2022/09/10 12:02:23;;;;;;;14.02;9.30;;;19.80;99.90;;;;;;5020054;28;20406;-87
2022/09/10 12:05:13;;;;;;;12.48;9.63;;;19.70;99.90;;;;;;5036629;28;20057;-87
2022/09/10 12:08:27;;;;;;;11.85;9.57;;;19.70;99.90;;;;;;5036792;28;20513;-85
2022/09/10 12:11:07;;;;;;;9.82;8.27;;;19.90;99.90;;;;;;4958183;28;20051;-86
2022/09/10 12:13:38;;;;;;;12.68;8.15;;;19.80;99.90;;;;;;4958766;28;20073;-86
2022/09/10 12:16:24;;;;;;;10.60;7.82;;;19.80;99.90;;;;;;4942444;28;20047;-88
2022/09/10 12:18:53;;;;;;;12.48;8.48;;;19.90;99.90;;;;;;5000002;28;20090;-85
2022/09/10 12:21:31;;;;;;;9.50;8.60;;;20.00;99.90;;;;;;5030888;28;20118;-86
2022/09/10 12:23:59;;;;;;;11.43;7.82;;;19.90;99.90;;;;;;5036161;28;20095;-87
2022/09/10 12:26:25;;;;;;;11.55;8.70;;;20.00;99.90;;;;;;5032416;28;20053;-86
2022/09/10 12:28:58;;;;;;;14.93;9.50;;;20.30;99.90;;;;;;5025009;28;20033;-84
2022/09/10 12:31:26;;;;;;;10.73;8.30;;;;;;;;;;5021479;28;20049;-82
2022/09/10 12:33:56;;;;;;;9.13;7.32;;;;;;;;;;5013893;28;20089;-87
2022/09/10 12:36:25;;;;;;;9.68;8.35;;;;;;;;;;5025471;28;20051;-83
2022/09/10 12:39:24;;;;;;;10.00;8.35;;;20.30;99.90;;;;;;4980214;28;20046;-87
2022/09/10 12:41:49;;;;;;;9.05;7.85;;;20.50;99.90;;;;;;5000200;28;20094;-86
2022/09/10 12:44:34;;;;;;;9.75;8.70;;;20.70;99.90;;;;;;5014938;28;20042;-86
2022/09/10 12:47:15;;;;;;;9.18;7.72;;;20.50;99.90;;;;;;5039788;28;20047;-86
2022/09/10 12:49:49;;;;;;;8.35;7.55;;;20.60;99.90;;;;;;5113449;28;20036;-85
2022/09/10 12:52:33;;;;;;;9.15;7.47;;;20.40;99.90;;;;;;5112427;28;20404;-85
2022/09/10 12:55:30;;;;;;;7.32;6.60;;;20.40;99.90;;;;;;5112881;28;20043;-83
2022/09/10 12:58:14;;;;;;;10.05;7.47;;;20.50;99.90;;;;;;5113232;28;20138;-86
2022/09/10 13:00:55;;;;;;;11.35;6.70;;;20.40;99.90;;;;;;5082328;28;20470;-85
2022/09/10 13:03:23;;;;;;;7.68;6.75;;;20.50;99.90;;;;;;5092577;28;20044;-85
2022/09/10 13:05:53;;;;;;;8.48;6.03;;;20.60;99.90;;;;;;5092857;28;20048;-85
2022/09/10 13:08:28;;;;;;;8.15;6.28;;;20.50;99.90;;;;;;5093316;28;20484;-86
2022/09/10 13:10:55;;;;;;;9.50;7.55;;;20.30;99.90;;;;;;5092750;28;20052;-86
2022/09/10 13:13:38;;;;;;;8.63;6.03;;;20.80;99.90;;;;;;5092817;28;20051;-84
2022/09/10 13:16:09;;;;;;;9.15;6.55;;;20.90;99.90;;;;;;5092469;28;20044;-87
2022/09/10 13:18:36;;;;;;;6.55;5.38;;;21.00;99.90;;;;;;5092181;28;20046;-86
2022/09/10 13:21:24;;;;;;;7.25;6.03;;;21.20;99.90;;;;;;5092595;28;20044;-86
2022/09/10 13:23:55;;;;;;;11.23;6.25;;;21.20;99.90;;;;;;5095823;28;20450;-86
2022/09/10 13:26:38;;;;;;;6.10;5.50;;;21.10;99.90;;;;;;5090494;28;20050;-86
2022/09/10 13:29:24;;;;;;;7.75;6.30;;;21.20;99.90;;;;;;5095809;28;20043;-86
2022/09/10 13:32:01;;;;;;;8.95;6.07;;;21.20;99.90;;;;;;5095640;28;20085;-86